createdAt,value
2017-12-20T00:00:37.298Z,36.72
2017-12-20T00:03:15.302Z,15.27
2017-12-20T00:05:42.656Z,15.27
2017-12-20T00:08:09.395Z,29.60
2017-12-20T00:10:49.349Z,16.92
2017-12-20T00:13:15.980Z,30.65
2017-12-20T00:15:42.673Z,43.63
2017-12-20T00:18:10.199Z,27.57
2017-12-20T00:20:37.531Z,25.70
2017-12-20T00:23:05.806Z,41.30
2017-12-20T00:25:32.443Z,46.72
2017-12-20T00:27:59.892Z,68.12
2017-12-20T00:30:28.174Z,27.67
2017-12-20T00:32:54.813Z,104.00
2017-12-20T00:35:40.497Z,27.80
2017-12-20T00:38:07.133Z,46.95
2017-12-20T00:40:34.092Z,21.27
2017-12-20T00:43:00.885Z,18.25
2017-12-20T00:45:29.603Z,18.58
2017-12-20T00:47:56.236Z,32.80
2017-12-20T00:50:22.674Z,21.83
2017-12-20T00:52:49.196Z,25.00
2017-12-20T00:55:37.196Z,28.17
2017-12-20T00:58:03.987Z,39.63
2017-12-20T01:00:30.579Z,20.23
2017-12-20T01:02:57.979Z,16.60
2017-12-20T01:05:26.765Z,31.35
2017-12-20T01:07:54.223Z,57.05
2017-12-20T01:10:21.554Z,38.05
2017-12-20T01:12:48.314Z,30.95
2017-12-20T01:15:34.510Z,27.33
2017-12-20T01:18:02.164Z,38.00
2017-12-20T01:20:29.813Z,62.62
2017-12-20T01:22:57.493Z,52.78
2017-12-20T01:25:48.196Z,36.40
2017-12-20T01:28:14.934Z,22.48
2017-12-20T01:30:41.674Z,24.15
2017-12-20T01:33:08.342Z,29.55
2017-12-20T01:35:53.788Z,28.42
2017-12-20T01:38:21.143Z,32.45
2017-12-20T01:40:48.087Z,17.52
2017-12-20T01:43:15.030Z,17.98
2017-12-20T01:45:46.277Z,24.75
2017-12-20T01:48:13.005Z,24.93
2017-12-20T01:50:39.858Z,19.83
2017-12-20T01:53:10.592Z,14.60
2017-12-20T01:55:37.330Z,17.70
2017-12-20T01:58:04.172Z,17.55
2017-12-20T02:11:07.227Z,16.45
2017-12-20T02:13:34.068Z,19.05
2017-12-20T02:16:00.993Z,16.20
2017-12-20T02:18:41.767Z,14.45
2017-12-20T02:21:08.419Z,13.40
2017-12-20T02:23:35.465Z,12.50
2017-12-20T02:26:02.205Z,14.43
2017-12-20T02:28:28.945Z,12.50
2017-12-20T02:30:55.684Z,8.85
2017-12-20T02:33:33.587Z,8.57
2017-12-20T02:36:01.144Z,10.63
2017-12-20T02:38:52.568Z,7.60
2017-12-20T02:41:19.301Z,7.53
2017-12-20T02:43:45.989Z,5.95
2017-12-20T02:46:12.782Z,7.47
2017-12-20T02:48:40.442Z,8.52
2017-12-20T02:51:07.489Z,8.43
2017-12-20T02:53:34.228Z,7.57
2017-12-20T02:56:00.990Z,8.15
2017-12-20T02:58:49.398Z,8.90
2017-12-20T03:01:16.975Z,7.45
2017-12-20T03:03:44.635Z,7.05
2017-12-20T03:06:11.477Z,7.22
2017-12-20T03:08:38.215Z,8.13
2017-12-20T03:11:04.995Z,9.70
2017-12-20T03:13:31.798Z,8.38
2017-12-20T03:16:00.564Z,12.02
2017-12-20T03:18:27.324Z,18.95
2017-12-20T03:20:53.963Z,13.00
2017-12-20T03:23:21.419Z,7.75
2017-12-20T03:25:48.465Z,14.93
2017-12-20T03:28:15.307Z,10.02
2017-12-20T03:31:01.400Z,12.70
2017-12-20T03:33:28.140Z,12.80
2017-12-20T03:35:54.877Z,23.15
2017-12-20T03:38:21.661Z,12.45
2017-12-20T03:40:55.116Z,16.58
2017-12-20T03:43:21.940Z,21.77
2017-12-20T03:45:48.882Z,28.07
2017-12-20T03:48:15.846Z,21.45
2017-12-20T03:53:55.717Z,31.50
2017-12-20T03:56:22.555Z,13.80
2017-12-20T03:58:50.114Z,11.98
2017-12-20T04:01:16.853Z,36.03
2017-12-20T04:03:43.576Z,18.33
2017-12-20T04:06:10.228Z,18.75
2017-12-20T04:08:37.172Z,23.75
2017-12-20T04:14:04.751Z,22.50
2017-12-20T04:16:31.389Z,16.98
2017-12-20T04:18:58.195Z,24.15
2017-12-20T04:21:24.868Z,24.10
2017-12-20T04:23:53.860Z,21.87
2017-12-20T04:26:20.811Z,14.90
2017-12-20T04:28:47.544Z,15.95
2017-12-20T04:31:14.079Z,15.60
2017-12-20T04:33:55.956Z,21.37
2017-12-20T04:36:22.610Z,20.53
2017-12-20T04:38:49.149Z,21.08
2017-12-20T04:41:15.680Z,19.42
2017-12-20T04:43:42.316Z,26.70
2017-12-20T04:46:09.160Z,22.93
2017-12-20T04:48:36.000Z,47.67
2017-12-20T04:51:02.636Z,30.52
2017-12-20T04:53:29.258Z,36.50
2017-12-20T04:55:55.911Z,70.25
2017-12-20T04:58:22.855Z,29.17
2017-12-20T05:03:46.752Z,28.23
2017-12-20T05:06:13.384Z,34.63
2017-12-20T05:08:39.992Z,29.20
2017-12-20T05:11:06.762Z,28.35
2017-12-20T05:13:33.360Z,40.45
2017-12-20T05:15:59.932Z,43.60
2017-12-20T05:18:26.472Z,91.57
2017-12-20T05:20:53.309Z,67.43
2017-12-20T05:23:33.155Z,63.97
2017-12-20T05:25:59.896Z,58.42
2017-12-20T05:28:26.532Z,59.43
2017-12-20T05:30:53.180Z,46.00
2017-12-20T05:33:31.276Z,40.70
2017-12-20T05:35:58.526Z,63.15
2017-12-20T05:38:25.131Z,47.72
2017-12-20T05:40:52.727Z,53.53
2017-12-20T05:43:19.196Z,49.33
2017-12-20T05:45:45.777Z,45.43
2017-12-20T05:48:12.533Z,41.92
2017-12-20T05:50:41.215Z,28.50
2017-12-20T05:53:07.749Z,22.43
2017-12-20T05:55:34.388Z,34.50
2017-12-20T05:58:01.743Z,24.33
2017-12-20T06:00:28.480Z,26.05
2017-12-20T06:02:54.991Z,27.37
2017-12-20T06:05:22.299Z,22.60
2017-12-20T06:07:48.883Z,19.90
2017-12-20T06:10:15.470Z,24.77
2017-12-20T06:12:42.054Z,23.33
2017-12-20T06:15:08.610Z,22.17
2017-12-20T06:17:35.964Z,20.50
2017-12-20T06:20:04.342Z,19.23
2017-12-20T06:22:30.901Z,19.15
2017-12-20T06:24:57.681Z,17.95
2017-12-20T06:27:24.346Z,17.20
2017-12-20T06:29:50.993Z,20.35
2017-12-20T06:32:17.734Z,19.00
2017-12-20T06:34:45.193Z,20.00
2017-12-20T06:37:11.826Z,20.27
2017-12-20T06:39:52.683Z,17.35
2017-12-20T06:42:19.335Z,21.30
2017-12-20T06:44:46.164Z,24.55
2017-12-20T06:47:13.019Z,33.08
2017-12-20T06:49:42.729Z,33.53
2017-12-20T06:52:09.363Z,34.17
2017-12-20T06:54:36.004Z,29.55
2017-12-20T06:57:02.638Z,30.70
2017-12-20T06:59:30.402Z,29.73
2017-12-20T07:01:57.334Z,28.75
2017-12-20T07:04:32.281Z,27.10
2017-12-20T07:07:00.570Z,27.55
2017-12-20T07:09:27.189Z,25.35
2017-12-20T07:11:54.031Z,24.25
2017-12-20T07:14:20.763Z,23.65
2017-12-20T07:16:48.332Z,20.88
2017-12-20T07:19:15.166Z,22.83
2017-12-20T07:21:41.914Z,24.77
2017-12-20T07:24:08.553Z,23.80
2017-12-20T07:26:36.004Z,21.48
2017-12-20T07:29:04.278Z,19.52
2017-12-20T07:31:31.123Z,24.70
2017-12-20T07:34:06.257Z,27.75
2017-12-20T07:36:33.292Z,28.60
2017-12-20T07:39:00.249Z,28.75
2017-12-20T07:41:27.194Z,23.80
2017-12-20T07:43:53.830Z,28.00
2017-12-20T07:46:21.286Z,22.95
2017-12-20T07:48:47.925Z,25.33
2017-12-20T07:51:37.084Z,22.40
2017-12-20T07:54:04.647Z,19.80
2017-12-20T07:56:31.387Z,19.83
2017-12-20T07:58:58.024Z,20.37
2017-12-20T08:01:24.854Z,19.77
2017-12-20T08:03:51.505Z,23.25
2017-12-20T08:06:18.412Z,22.30
2017-12-20T08:08:44.985Z,19.70
2017-12-20T08:11:11.701Z,27.75
2017-12-20T08:13:39.179Z,21.92
2017-12-20T08:16:05.923Z,27.67
2017-12-20T08:20:35.741Z,24.10
2017-12-20T08:23:02.676Z,21.80
2017-12-20T08:25:29.612Z,23.62
2017-12-20T08:27:57.087Z,24.37
2017-12-20T08:30:24.752Z,24.30
2017-12-20T08:32:51.591Z,29.90
2017-12-20T08:35:18.739Z,34.40
2017-12-20T08:37:45.478Z,39.50
2017-12-20T08:40:12.197Z,35.33
2017-12-20T08:42:39.470Z,34.60
2017-12-20T08:45:06.118Z,32.78
2017-12-20T08:47:33.467Z,34.95
2017-12-20T08:50:01.634Z,32.40
2017-12-20T08:52:28.270Z,31.17
2017-12-20T08:54:55.931Z,29.90
2017-12-20T08:57:22.662Z,32.00
2017-12-20T08:59:49.310Z,34.30
2017-12-20T09:02:16.134Z,32.67
2017-12-20T09:04:42.780Z,34.20
2017-12-20T09:07:09.528Z,39.53
2017-12-20T09:09:39.646Z,36.00
2017-12-20T09:12:06.489Z,34.33
2017-12-20T09:14:33.326Z,34.72
2017-12-20T09:17:00.069Z,32.70
2017-12-20T09:19:26.914Z,30.30
2017-12-20T09:21:53.763Z,31.73
2017-12-20T09:24:20.582Z,29.12
2017-12-20T09:26:48.357Z,29.50
2017-12-20T09:29:15.410Z,30.02
2017-12-20T09:31:42.144Z,24.27
2017-12-20T09:34:08.782Z,25.88
2017-12-20T09:36:36.135Z,20.90
2017-12-20T09:39:03.899Z,24.25
2017-12-20T09:41:30.640Z,26.30
2017-12-20T09:43:57.277Z,21.98
2017-12-20T09:46:23.912Z,21.52
2017-12-20T09:48:50.550Z,21.00
2017-12-20T09:51:17.396Z,18.48
2017-12-20T09:53:44.130Z,20.83
2017-12-20T09:56:10.957Z,19.70
2017-12-20T09:58:37.815Z,20.88
2017-12-20T10:01:04.965Z,20.23
2017-12-20T10:03:31.707Z,20.90
2017-12-20T10:05:58.442Z,23.95
2017-12-20T10:08:25.264Z,22.80
2017-12-20T10:10:52.536Z,23.03
2017-12-20T10:13:19.384Z,19.15
2017-12-20T10:15:46.322Z,21.08
2017-12-20T10:18:13.169Z,21.98
2017-12-20T10:20:40.007Z,22.83
2017-12-20T10:23:06.949Z,23.17
2017-12-20T10:25:33.791Z,31.08
2017-12-20T10:28:00.721Z,28.83
2017-12-20T10:30:27.680Z,24.40
2017-12-20T10:32:55.241Z,23.65
2017-12-20T10:38:29.884Z,18.77
2017-12-20T10:40:56.724Z,18.30
2017-12-20T10:43:23.567Z,18.55
2017-12-20T10:45:56.025Z,20.70
2017-12-20T10:48:22.883Z,19.23
2017-12-20T10:50:49.726Z,19.00
2017-12-20T10:53:17.488Z,16.55
2017-12-20T10:55:44.124Z,19.52
2017-12-20T10:58:10.962Z,24.75
2017-12-20T11:00:37.810Z,17.33
2017-12-20T11:03:05.367Z,19.40
2017-12-20T11:05:32.209Z,19.67
2017-12-20T11:07:58.935Z,19.70
2017-12-20T11:10:25.590Z,17.98
2017-12-20T11:12:54.167Z,19.90
2017-12-20T11:15:21.010Z,18.08
2017-12-20T11:17:48.466Z,16.20
2017-12-20T11:20:15.410Z,20.37
2017-12-20T11:22:42.253Z,14.00
2017-12-20T11:25:08.991Z,16.87
2017-12-20T11:27:35.731Z,26.85
2017-12-20T11:30:02.471Z,18.20
2017-12-20T11:32:29.929Z,10.10
2017-12-20T11:34:57.078Z,14.15
2017-12-20T11:37:23.917Z,12.95
2017-12-20T11:39:50.640Z,12.90
2017-12-20T11:42:17.294Z,13.50
2017-12-20T11:44:43.930Z,18.20
2017-12-20T11:47:10.572Z,12.63
2017-12-20T11:49:37.401Z,12.10
2017-12-20T11:52:04.185Z,11.05
2017-12-20T11:54:31.169Z,12.63
2017-12-20T11:56:57.831Z,13.25
2017-12-20T12:02:26.234Z,11.25
2017-12-20T12:04:53.072Z,10.45
2017-12-20T12:07:19.908Z,12.80
2017-12-20T12:09:48.291Z,10.07
2017-12-20T12:12:15.133Z,8.95
2017-12-20T12:14:41.777Z,8.88
2017-12-20T12:17:08.268Z,7.90
2017-12-20T12:19:35.024Z,5.60
2017-12-20T12:22:01.789Z,5.03
2017-12-20T12:24:28.830Z,5.40
2017-12-20T12:26:55.570Z,4.90
2017-12-20T12:29:22.412Z,4.90
2017-12-20T12:31:49.663Z,5.70
2017-12-20T12:34:17.941Z,5.50
2017-12-20T12:36:44.678Z,5.40
2017-12-20T12:39:11.829Z,6.30
2017-12-20T12:41:43.380Z,6.60
2017-12-20T12:44:10.323Z,9.65
2017-12-20T12:46:37.063Z,7.45
2017-12-20T12:49:03.904Z,7.43
2017-12-20T12:51:34.740Z,10.07
2017-12-20T12:54:01.275Z,10.50
2017-12-20T12:56:28.117Z,13.82
2017-12-20T12:58:54.753Z,10.55
2017-12-20T13:01:25.179Z,10.33
2017-12-20T13:03:51.920Z,7.70
2017-12-20T13:06:18.759Z,6.68
2017-12-20T13:08:45.499Z,5.10
2017-12-20T13:11:12.388Z,5.28
2017-12-20T13:13:39.284Z,5.60
2017-12-20T13:16:06.129Z,8.68
2017-12-20T13:18:32.969Z,5.82
2017-12-20T13:20:59.709Z,4.60
2017-12-20T13:23:26.438Z,5.05
2017-12-20T13:25:53.287Z,5.67
2017-12-20T13:28:20.338Z,5.55
2017-12-20T13:30:55.962Z,4.80
2017-12-20T13:33:22.520Z,5.62
2017-12-20T13:35:49.194Z,5.40
2017-12-20T13:38:15.882Z,5.15
2017-12-20T13:40:43.352Z,4.75
2017-12-20T13:43:09.989Z,4.80
2017-12-20T13:45:36.731Z,4.47
2017-12-20T13:48:03.571Z,5.37
2017-12-20T13:50:30.675Z,5.20
2017-12-20T13:52:57.460Z,5.57
2017-12-20T13:55:24.263Z,5.37
2017-12-20T13:57:50.938Z,5.73
2017-12-20T14:00:17.985Z,5.00
2017-12-20T14:02:44.827Z,5.17
2017-12-20T14:05:11.463Z,5.18
2017-12-20T14:07:38.204Z,5.40
2017-12-20T14:10:05.662Z,6.72
2017-12-20T14:12:32.604Z,6.37
2017-12-20T14:14:59.652Z,7.90
2017-12-20T14:17:26.682Z,7.10
2017-12-20T14:19:53.438Z,7.80
2017-12-20T14:22:21.049Z,6.93
2017-12-20T14:24:47.611Z,9.40
2017-12-20T14:27:14.680Z,6.83
2017-12-20T14:29:41.619Z,10.20
2017-12-20T14:32:08.468Z,7.18
2017-12-20T14:34:35.306Z,7.70
2017-12-20T14:37:01.945Z,7.70
2017-12-20T14:39:28.686Z,7.35
2017-12-20T14:41:55.730Z,7.03
2017-12-20T14:44:23.304Z,7.32
2017-12-20T14:46:49.929Z,8.52
2017-12-20T14:49:16.747Z,8.40
2017-12-20T14:51:43.508Z,8.60
2017-12-20T14:54:10.661Z,8.10
2017-12-20T14:56:37.600Z,7.80
2017-12-20T14:59:04.436Z,8.00
2017-12-20T15:01:31.083Z,7.85
2017-12-20T15:03:58.846Z,9.30
2017-12-20T15:06:25.995Z,10.60
2017-12-20T15:08:52.731Z,9.40
2017-12-20T15:11:19.371Z,10.00
2017-12-20T15:13:46.112Z,10.65
2017-12-20T15:16:13.257Z,10.27
2017-12-20T15:18:40.001Z,10.10
2017-12-20T15:21:06.816Z,10.70
2017-12-20T15:23:33.884Z,10.03
2017-12-20T15:26:00.932Z,10.70
2017-12-20T15:28:27.673Z,10.77
2017-12-20T15:30:55.437Z,9.55
2017-12-20T15:33:22.892Z,11.30
2017-12-20T15:35:49.635Z,10.82
2017-12-20T15:38:16.579Z,13.02
2017-12-20T15:40:43.218Z,11.70
2017-12-20T15:43:10.238Z,12.93
2017-12-20T15:45:37.100Z,33.92
2017-12-20T15:48:04.249Z,29.87
2017-12-20T15:50:31.097Z,26.48
2017-12-20T15:52:57.913Z,29.93
2017-12-20T15:55:24.666Z,34.38
2017-12-20T15:57:51.619Z,16.40
2017-12-20T16:00:18.457Z,12.13
2017-12-20T16:02:45.307Z,15.60
2017-12-20T16:05:12.246Z,15.75
2017-12-20T16:07:39.392Z,14.47
2017-12-20T16:10:06.234Z,11.55
2017-12-20T16:12:33.076Z,11.98
2017-12-20T16:14:59.843Z,14.65
2017-12-20T16:17:26.557Z,16.40
2017-12-20T16:19:53.402Z,14.65
2017-12-20T16:22:20.036Z,16.17
2017-12-20T16:24:46.876Z,13.30
2017-12-20T16:27:13.712Z,12.50
2017-12-20T16:29:41.584Z,13.85
2017-12-20T16:32:08.695Z,16.00
2017-12-20T16:34:35.473Z,13.82
2017-12-20T16:37:02.403Z,14.30
2017-12-20T16:39:29.260Z,14.15
2017-12-20T16:41:56.204Z,15.70
2017-12-20T16:44:22.842Z,16.25
2017-12-20T16:46:49.478Z,15.13
2017-12-20T16:49:16.333Z,16.75
2017-12-20T16:51:43.268Z,18.80
2017-12-20T16:54:09.903Z,19.67
2017-12-20T16:56:36.743Z,19.05
2017-12-20T16:59:03.575Z,21.77
2017-12-20T17:01:30.528Z,20.50
2017-12-20T17:03:57.478Z,22.15
2017-12-20T17:06:24.314Z,22.30
2017-12-20T17:08:51.056Z,23.20
2017-12-20T17:11:17.899Z,21.67
2017-12-20T17:13:44.943Z,27.20
2017-12-20T17:16:11.789Z,42.30
2017-12-20T17:18:38.525Z,32.65
2017-12-20T17:21:05.367Z,38.07
2017-12-20T17:23:32.412Z,40.38
2017-12-20T17:25:59.464Z,37.08
2017-12-20T17:28:34.186Z,37.78
2017-12-20T17:31:00.994Z,37.85
2017-12-20T17:33:27.563Z,36.58
2017-12-20T17:35:54.470Z,33.72
2017-12-20T17:38:23.907Z,32.45
2017-12-20T17:40:51.467Z,30.20
2017-12-20T17:43:18.135Z,28.42
2017-12-20T17:45:45.056Z,28.60
2017-12-20T17:48:20.286Z,29.33
2017-12-20T17:50:47.233Z,33.08
2017-12-20T17:53:14.074Z,33.63
2017-12-20T17:55:50.944Z,31.62
2017-12-20T17:58:17.799Z,28.77
2017-12-20T18:00:44.930Z,28.73
2017-12-20T18:03:11.987Z,24.20
2017-12-20T18:05:59.725Z,20.80
2017-12-20T18:08:28.304Z,21.90
2017-12-20T18:10:55.169Z,22.70
2017-12-20T18:13:42.985Z,21.30
2017-12-20T18:16:12.106Z,21.12
2017-12-20T18:18:38.768Z,22.00
2017-12-20T18:21:05.634Z,25.20
2017-12-20T18:23:33.011Z,20.02
2017-12-20T18:25:59.592Z,21.33
2017-12-20T18:28:26.783Z,23.00
2017-12-20T18:30:53.248Z,21.98
2017-12-20T18:33:21.524Z,22.90
2017-12-20T18:35:48.311Z,23.50
2017-12-20T18:38:14.769Z,23.80
2017-12-20T18:40:41.372Z,27.40
2017-12-20T18:43:08.852Z,28.83
2017-12-20T18:45:35.513Z,31.52
2017-12-20T18:48:02.798Z,28.40
2017-12-20T18:50:29.448Z,28.80
2017-12-20T18:53:00.407Z,27.55
2017-12-20T18:55:27.377Z,29.10
2017-12-20T18:57:54.343Z,23.85
2017-12-20T19:00:21.315Z,22.92
2017-12-20T19:02:48.078Z,27.20
2017-12-20T19:05:14.839Z,31.73
2017-12-20T19:07:43.278Z,29.10
2017-12-20T19:10:29.650Z,29.02
2017-12-20T19:12:56.299Z,24.33
2017-12-20T19:15:22.959Z,27.48
2017-12-20T19:17:49.722Z,18.48
2017-12-20T19:23:23.240Z,21.10
2017-12-20T19:25:49.892Z,19.90
2017-12-20T19:28:16.627Z,19.25
2017-12-20T19:30:44.546Z,14.90
2017-12-20T19:33:11.207Z,13.70
2017-12-20T19:35:37.870Z,15.40
2017-12-20T19:38:04.528Z,12.98
2017-12-20T19:40:53.002Z,14.30
2017-12-20T19:43:19.530Z,14.13
2017-12-20T19:45:46.805Z,12.48
2017-12-20T19:48:13.366Z,12.65
2017-12-20T19:50:53.225Z,13.20
2017-12-20T19:53:19.883Z,14.30
2017-12-20T19:55:46.537Z,14.32
2017-12-20T19:58:13.506Z,13.32
2017-12-20T20:00:48.307Z,15.20
2017-12-20T20:03:14.906Z,20.15
2017-12-20T20:05:41.572Z,20.95
2017-12-20T20:08:08.235Z,19.20
2017-12-20T20:19:34.290Z,16.95
2017-12-20T20:22:00.845Z,16.20
2017-12-20T20:24:27.398Z,16.52
2017-12-20T20:26:54.616Z,17.30
2017-12-20T20:29:21.365Z,16.02
2017-12-20T20:31:47.834Z,17.00
2017-12-20T20:34:14.348Z,16.85
2017-12-20T20:36:41.582Z,16.60
2017-12-20T20:42:01.132Z,15.27
2017-12-20T20:44:27.622Z,15.43
2017-12-20T20:46:54.070Z,16.33
2017-12-20T20:49:24.016Z,17.90
2017-12-20T20:51:50.531Z,19.00
2017-12-20T20:54:18.019Z,15.65
2017-12-20T20:56:44.481Z,18.02
2017-12-20T20:59:14.711Z,17.20
2017-12-20T21:01:41.266Z,18.90
2017-12-20T21:04:08.645Z,20.83
2017-12-20T21:06:35.144Z,20.60
2017-12-20T21:09:08.270Z,18.40
2017-12-20T21:11:35.500Z,17.83
2017-12-20T21:14:01.935Z,16.60
2017-12-20T21:16:28.406Z,16.40
2017-12-20T21:19:00.785Z,16.10
2017-12-20T21:21:27.335Z,15.02
2017-12-20T21:23:54.819Z,15.50
2017-12-20T21:26:21.392Z,14.93
2017-12-20T21:28:48.050Z,15.15
2017-12-20T21:31:14.799Z,14.60
2017-12-20T21:33:42.168Z,15.90
2017-12-20T21:36:20.001Z,15.75
2017-12-20T21:38:46.541Z,15.98
2017-12-20T21:41:15.917Z,16.73
2017-12-20T21:43:42.397Z,16.33
2017-12-20T21:46:08.981Z,17.58
2017-12-20T21:48:35.749Z,17.50
2017-12-20T21:51:02.253Z,17.55
2017-12-20T21:53:28.743Z,16.67
2017-12-20T21:55:56.134Z,19.20
2017-12-20T21:58:23.404Z,18.70
2017-12-20T22:00:51.222Z,17.15
2017-12-20T22:03:17.857Z,18.37
2017-12-20T22:05:45.232Z,17.87
2017-12-20T22:08:12.477Z,17.13
2017-12-20T22:10:39.059Z,17.48
2017-12-20T22:13:06.440Z,18.10
2017-12-20T22:15:33.696Z,17.77
2017-12-20T22:18:00.197Z,18.10
2017-12-20T22:20:28.687Z,17.48
2017-12-20T22:22:55.131Z,17.73
2017-12-20T22:25:22.317Z,17.37
2017-12-20T22:27:48.868Z,18.40
2017-12-20T22:30:15.385Z,17.70
2017-12-20T22:32:41.977Z,17.70
2017-12-20T22:35:09.252Z,17.77
2017-12-20T22:37:37.557Z,17.80
2017-12-20T22:40:04.108Z,17.90
2017-12-20T22:42:31.382Z,17.40
2017-12-20T22:44:58.656Z,17.33
2017-12-20T22:47:30.105Z,18.45
2017-12-20T22:49:57.347Z,18.52
2017-12-20T22:52:23.855Z,17.80
2017-12-20T22:54:51.333Z,19.87
2017-12-20T22:57:45.097Z,17.77
2017-12-20T23:00:12.374Z,18.20
2017-12-20T23:02:39.592Z,18.55
2017-12-20T23:05:06.308Z,18.90
2017-12-20T23:07:33.786Z,18.55
2017-12-20T23:10:00.995Z,17.73
2017-12-20T23:12:27.475Z,18.95
2017-12-20T23:14:57.886Z,18.60
2017-12-20T23:17:24.417Z,19.00
2017-12-20T23:19:51.630Z,19.27
2017-12-20T23:22:18.269Z,18.50
2017-12-20T23:24:44.811Z,18.37
2017-12-20T23:27:12.186Z,19.13
2017-12-20T23:29:38.791Z,20.60
2017-12-20T23:32:05.359Z,19.05
2017-12-20T23:34:32.067Z,19.55
2017-12-20T23:36:59.449Z,18.60
2017-12-20T23:39:25.976Z,18.87
2017-12-20T23:41:52.559Z,19.20
2017-12-20T23:44:19.880Z,19.67
2017-12-20T23:46:46.494Z,20.27
2017-12-20T23:49:13.770Z,21.00
2017-12-20T23:51:41.032Z,21.87
2017-12-20T23:54:11.761Z,19.80
2017-12-20T23:56:38.945Z,20.10
2017-12-20T23:59:05.528Z,21.37
